<?xml version="1.0" encoding="UTF-8" standalone="no" ?>
<gpx xmlns="http://www.topografix.com/GPX/1/1" xmlns:xsi="http://www.w3.org/2001/XMLSchema-instance" xsi:schemaLocation="http://www.topografix.com/GPX/1/1 http://www.topografix.com/GPX/1/1/gpx.xsd" version="1.1" creator="VisuGPX - https://www.visugpx.com">
  <metadata>
    <name>sdfg</name>
  </metadata>
  <trk>
    <name><![CDATA[sdfg_2]]></name>
    <trkseg>
      <trkpt lat="46.5081" lon="6.07241">
        <ele>1278</ele>
        <time>2000-01-01T01:55:33.000Z</time>
      </trkpt>
      <trkpt lat="46.50781" lon="6.07205">
        <ele>1274</ele>
        <time>2000-01-01T01:55:23.000Z</time>
      </trkpt>
      <trkpt lat="46.5076" lon="6.0718">
        <ele>1262</ele>
        <time>2000-01-01T01:55:13.000Z</time>
      </trkpt>
      <trkpt lat="46.50738" lon="6.07142">
        <ele>1259</ele>
        <time>2000-01-01T01:55:03.000Z</time>
      </trkpt>
      <trkpt lat="46.50722" lon="6.07081">
        <ele>1259</ele>
        <time>2000-01-01T01:54:53.000Z</time>
      </trkpt>
      <trkpt lat="46.50668" lon="6.07027">
        <ele>1259</ele>
        <time>2000-01-01T01:54:43.000Z</time>
      </trkpt>
      <trkpt lat="46.5064" lon="6.06998">
        <ele>1258</ele>
        <time>2000-01-01T01:54:33.000Z</time>
      </trkpt>
      <trkpt lat="46.50612" lon="6.0697">
        <ele>1261</ele>
        <time>2000-01-01T01:54:23.000Z</time>
      </trkpt>
      <trkpt lat="46.50602" lon="6.06935">
        <ele>1258</ele>
        <time>2000-01-01T01:54:13.000Z</time>
      </trkpt>
      <trkpt lat="46.50582" lon="6.06889">
        <ele>1258</ele>
        <time>2000-01-01T01:54:03.000Z</time>
      </trkpt>
      <trkpt lat="46.50568" lon="6.06856">
        <ele>1258</ele>
        <time>2000-01-01T01:53:53.000Z</time>
      </trkpt>
      <trkpt lat="46.5054" lon="6.06797">
        <ele>1255</ele>
        <time>2000-01-01T01:53:43.000Z</time>
      </trkpt>
      <trkpt lat="46.50523" lon="6.06763">
        <ele>1252</ele>
        <time>2000-01-01T01:53:33.000Z</time>
      </trkpt>
      <trkpt lat="46.50498" lon="6.06776">
        <ele>1250</ele>
        <time>2000-01-01T01:53:23.000Z</time>
      </trkpt>
      <trkpt lat="46.50473" lon="6.06741">
        <ele>1260</ele>
        <time>2000-01-01T01:53:13.000Z</time>
      </trkpt>
      <trkpt lat="46.50437" lon="6.0672">
        <ele>1260</ele>
        <time>2000-01-01T01:53:03.000Z</time>
      </trkpt>
      <trkpt lat="46.50398" lon="6.06691">
        <ele>1261</ele>
        <time>2000-01-01T01:52:53.000Z</time>
      </trkpt>
      <trkpt lat="46.50369" lon="6.06669">
        <ele>1256</ele>
        <time>2000-01-01T01:52:43.000Z</time>
      </trkpt>
      <trkpt lat="46.5034" lon="6.06648">
        <ele>1235</ele>
        <time>2000-01-01T01:52:33.000Z</time>
      </trkpt>
      <trkpt lat="46.50331" lon="6.06589">
        <ele>1233</ele>
        <time>2000-01-01T01:52:23.000Z</time>
      </trkpt>
      <trkpt lat="46.50322" lon="6.06557">
        <ele>1231</ele>
        <time>2000-01-01T01:52:13.000Z</time>
      </trkpt>
      <trkpt lat="46.50312" lon="6.06525">
        <ele>1233</ele>
        <time>2000-01-01T01:52:03.000Z</time>
      </trkpt>
      <trkpt lat="46.503" lon="6.06486">
        <ele>1235</ele>
        <time>2000-01-01T01:51:53.000Z</time>
      </trkpt>
      <trkpt lat="46.50289" lon="6.06453">
        <ele>1248</ele>
        <time>2000-01-01T01:51:43.000Z</time>
      </trkpt>
      <trkpt lat="46.50287" lon="6.0642">
        <ele>1248</ele>
        <time>2000-01-01T01:51:33.000Z</time>
      </trkpt>
      <trkpt lat="46.50306" lon="6.06397">
        <ele>1249</ele>
        <time>2000-01-01T01:51:23.000Z</time>
      </trkpt>
      <trkpt lat="46.50342" lon="6.06387">
        <ele>1246</ele>
        <time>2000-01-01T01:51:13.000Z</time>
      </trkpt>
      <trkpt lat="46.50378" lon="6.06389">
        <ele>1241</ele>
        <time>2000-01-01T01:51:03.000Z</time>
      </trkpt>
      <trkpt lat="46.50395" lon="6.06376">
        <ele>1240</ele>
        <time>2000-01-01T01:50:53.000Z</time>
      </trkpt>
      <trkpt lat="46.5041" lon="6.0635">
        <ele>1245.4</ele>
        <time>2000-01-01T01:50:43.000Z</time>
      </trkpt>
      <trkpt lat="46.5042" lon="6.0633">
        <ele>1240</ele>
        <time>2000-01-01T01:50:33.000Z</time>
      </trkpt>
      <trkpt lat="46.50405" lon="6.0627">
        <ele>1249</ele>
        <time>2000-01-01T01:50:23.000Z</time>
      </trkpt>
      <trkpt lat="46.50388" lon="6.06224">
        <ele>1260</ele>
        <time>2000-01-01T01:50:13.000Z</time>
      </trkpt>
      <trkpt lat="46.5036" lon="6.06182">
        <ele>1277</ele>
        <time>2000-01-01T01:50:03.000Z</time>
      </trkpt>
      <trkpt lat="46.50334" lon="6.06127">
        <ele>1278</ele>
        <time>2000-01-01T01:49:53.000Z</time>
      </trkpt>
      <trkpt lat="46.50317" lon="6.06093">
        <ele>1280</ele>
        <time>2000-01-01T01:49:43.000Z</time>
      </trkpt>
      <trkpt lat="46.503" lon="6.06049">
        <ele>1280</ele>
        <time>2000-01-01T01:49:33.000Z</time>
      </trkpt>
      <trkpt lat="46.50287" lon="6.06016">
        <ele>1265</ele>
        <time>2000-01-01T01:49:23.000Z</time>
      </trkpt>
      <trkpt lat="46.50288" lon="6.05963">
        <ele>1264</ele>
        <time>2000-01-01T01:49:13.000Z</time>
      </trkpt>
      <trkpt lat="46.50274" lon="6.05927">
        <ele>1263</ele>
        <time>2000-01-01T01:49:03.000Z</time>
      </trkpt>
      <trkpt lat="46.50263" lon="6.05895">
        <ele>1260</ele>
        <time>2000-01-01T01:48:53.000Z</time>
      </trkpt>
      <trkpt lat="46.50265" lon="6.05846">
        <ele>1267</ele>
        <time>2000-01-01T01:48:43.000Z</time>
      </trkpt>
      <trkpt lat="46.50257" lon="6.05814">
        <ele>1269</ele>
        <time>2000-01-01T01:48:33.000Z</time>
      </trkpt>
      <trkpt lat="46.50249" lon="6.05782">
        <ele>1269</ele>
        <time>2000-01-01T01:48:23.000Z</time>
      </trkpt>
      <trkpt lat="46.50228" lon="6.05753">
        <ele>1270</ele>
        <time>2000-01-01T01:48:13.000Z</time>
      </trkpt>
      <trkpt lat="46.50213" lon="6.05718">
        <ele>1268</ele>
        <time>2000-01-01T01:48:03.000Z</time>
      </trkpt>
      <trkpt lat="46.50211" lon="6.05681">
        <ele>1266</ele>
        <time>2000-01-01T01:47:53.000Z</time>
      </trkpt>
      <trkpt lat="46.5025" lon="6.05633">
        <ele>1260</ele>
        <time>2000-01-01T01:47:43.000Z</time>
      </trkpt>
      <trkpt lat="46.50273" lon="6.05606">
        <ele>1278</ele>
        <time>2000-01-01T01:47:33.000Z</time>
      </trkpt>
      <trkpt lat="46.50322" lon="6.05556">
        <ele>1281</ele>
        <time>2000-01-01T01:47:23.000Z</time>
      </trkpt>
      <trkpt lat="46.50347" lon="6.0553">
        <ele>1284</ele>
        <time>2000-01-01T01:47:13.000Z</time>
      </trkpt>
      <trkpt lat="46.50395" lon="6.05492">
        <ele>1284</ele>
        <time>2000-01-01T01:47:03.000Z</time>
      </trkpt>
      <trkpt lat="46.50421" lon="6.0547">
        <ele>1286</ele>
        <time>2000-01-01T01:46:53.000Z</time>
      </trkpt>
      <trkpt lat="46.50447" lon="6.05457">
        <ele>1282</ele>
        <time>2000-01-01T01:46:43.000Z</time>
      </trkpt>
      <trkpt lat="46.5047" lon="6.05446">
        <ele>1279</ele>
        <time>2000-01-01T01:46:33.000Z</time>
      </trkpt>
      <trkpt lat="46.50495" lon="6.0539">
        <ele>1281</ele>
        <time>2000-01-01T01:46:23.000Z</time>
      </trkpt>
      <trkpt lat="46.50531" lon="6.05372">
        <ele>1280</ele>
        <time>2000-01-01T01:46:13.000Z</time>
      </trkpt>
      <trkpt lat="46.50557" lon="6.05359">
        <ele>1282</ele>
        <time>2000-01-01T01:46:03.000Z</time>
      </trkpt>
      <trkpt lat="46.50577" lon="6.05378">
        <ele>1290</ele>
        <time>2000-01-01T01:45:53.000Z</time>
      </trkpt>
      <trkpt lat="46.50596" lon="6.05377">
        <ele>1290</ele>
        <time>2000-01-01T01:45:43.000Z</time>
      </trkpt>
      <trkpt lat="46.50627" lon="6.05395">
        <ele>1294</ele>
        <time>2000-01-01T01:45:33.000Z</time>
      </trkpt>
      <trkpt lat="46.50659" lon="6.05385">
        <ele>1299</ele>
        <time>2000-01-01T01:45:23.000Z</time>
      </trkpt>
      <trkpt lat="46.50686" lon="6.05398">
        <ele>1288</ele>
        <time>2000-01-01T01:45:13.000Z</time>
      </trkpt>
      <trkpt lat="46.5071" lon="6.05409">
        <ele>1287</ele>
        <time>2000-01-01T01:45:03.000Z</time>
      </trkpt>
      <trkpt lat="46.50755" lon="6.05408">
        <ele>1282</ele>
        <time>2000-01-01T01:44:53.000Z</time>
      </trkpt>
      <trkpt lat="46.50776" lon="6.05385">
        <ele>1278</ele>
        <time>2000-01-01T01:44:43.000Z</time>
      </trkpt>
      <trkpt lat="46.50812" lon="6.05375">
        <ele>1276</ele>
        <time>2000-01-01T01:44:33.000Z</time>
      </trkpt>
      <trkpt lat="46.50827" lon="6.05381">
        <ele>1275.9</ele>
        <time>2000-01-01T01:44:23.000Z</time>
      </trkpt>
      <trkpt lat="46.50835" lon="6.05401">
        <ele>1274</ele>
        <time>2000-01-01T01:44:13.000Z</time>
      </trkpt>
      <trkpt lat="46.50863" lon="6.05423">
        <ele>1285</ele>
        <time>2000-01-01T01:44:03.000Z</time>
      </trkpt>
      <trkpt lat="46.50874" lon="6.05457">
        <ele>1285</ele>
        <time>2000-01-01T01:43:53.000Z</time>
      </trkpt>
      <trkpt lat="46.50897" lon="6.0548">
        <ele>1285</ele>
        <time>2000-01-01T01:43:43.000Z</time>
      </trkpt>
      <trkpt lat="46.50911" lon="6.055">
        <ele>1284</ele>
        <time>2000-01-01T01:43:33.000Z</time>
      </trkpt>
      <trkpt lat="46.50919" lon="6.0553">
        <ele>1281</ele>
        <time>2000-01-01T01:43:23.000Z</time>
      </trkpt>
      <trkpt lat="46.5095" lon="6.05547">
        <ele>1277</ele>
        <time>2000-01-01T01:43:13.000Z</time>
      </trkpt>
      <trkpt lat="46.50972" lon="6.05569">
        <ele>1268</ele>
        <time>2000-01-01T01:43:03.000Z</time>
      </trkpt>
      <trkpt lat="46.50996" lon="6.05608">
        <ele>1261</ele>
        <time>2000-01-01T01:42:53.000Z</time>
      </trkpt>
      <trkpt lat="46.51014" lon="6.05617">
        <ele>1261</ele>
        <time>2000-01-01T01:42:43.000Z</time>
      </trkpt>
      <trkpt lat="46.51056" lon="6.05618">
        <ele>1256</ele>
        <time>2000-01-01T01:42:33.000Z</time>
      </trkpt>
      <trkpt lat="46.51077" lon="6.05564">
        <ele>1251</ele>
        <time>2000-01-01T01:42:23.000Z</time>
      </trkpt>
      <trkpt lat="46.51104" lon="6.05554">
        <ele>1246.9</ele>
        <time>2000-01-01T01:42:13.000Z</time>
      </trkpt>
      <trkpt lat="46.51115" lon="6.05535">
        <ele>1249</ele>
        <time>2000-01-01T01:42:03.000Z</time>
      </trkpt>
      <trkpt lat="46.51121" lon="6.05472">
        <ele>1248</ele>
        <time>2000-01-01T01:41:53.000Z</time>
      </trkpt>
      <trkpt lat="46.51126" lon="6.05431">
        <ele>1243</ele>
        <time>2000-01-01T01:41:43.000Z</time>
      </trkpt>
      <trkpt lat="46.5115" lon="6.05411">
        <ele>1238</ele>
        <time>2000-01-01T01:41:33.000Z</time>
      </trkpt>
      <trkpt lat="46.51192" lon="6.05409">
        <ele>1231.1</ele>
        <time>2000-01-01T01:41:23.000Z</time>
      </trkpt>
      <trkpt lat="46.51206" lon="6.05402">
        <ele>1234</ele>
        <time>2000-01-01T01:41:13.000Z</time>
      </trkpt>
      <trkpt lat="46.5122" lon="6.05373">
        <ele>1229</ele>
        <time>2000-01-01T01:41:03.000Z</time>
      </trkpt>
      <trkpt lat="46.51234" lon="6.05346">
        <ele>1227</ele>
        <time>2000-01-01T01:40:53.000Z</time>
      </trkpt>
      <trkpt lat="46.51246" lon="6.05277">
        <ele>1219.3</ele>
        <time>2000-01-01T01:40:43.000Z</time>
      </trkpt>
      <trkpt lat="46.5124" lon="6.05258">
        <ele>1221</ele>
        <time>2000-01-01T01:40:33.000Z</time>
      </trkpt>
      <trkpt lat="46.51251" lon="6.05204">
        <ele>1214.6</ele>
        <time>2000-01-01T01:40:23.000Z</time>
      </trkpt>
      <trkpt lat="46.51244" lon="6.05182">
        <ele>1216</ele>
        <time>2000-01-01T01:40:13.000Z</time>
      </trkpt>
      <trkpt lat="46.51254" lon="6.05123">
        <ele>1212</ele>
        <time>2000-01-01T01:40:03.000Z</time>
      </trkpt>
      <trkpt lat="46.51246" lon="6.05093">
        <ele>1207.8</ele>
        <time>2000-01-01T01:39:53.000Z</time>
      </trkpt>
      <trkpt lat="46.51246" lon="6.05068">
        <ele>1208</ele>
        <time>2000-01-01T01:39:43.000Z</time>
      </trkpt>
      <trkpt lat="46.51265" lon="6.04989">
        <ele>1204</ele>
        <time>2000-01-01T01:39:33.000Z</time>
      </trkpt>
      <trkpt lat="46.51276" lon="6.04948">
        <ele>1200</ele>
        <time>2000-01-01T01:39:23.000Z</time>
      </trkpt>
      <trkpt lat="46.51282" lon="6.0489">
        <ele>1199</ele>
        <time>2000-01-01T01:39:13.000Z</time>
      </trkpt>
      <trkpt lat="46.51286" lon="6.04851">
        <ele>1199</ele>
        <time>2000-01-01T01:39:03.000Z</time>
      </trkpt>
      <trkpt lat="46.5128" lon="6.04818">
        <ele>1199</ele>
        <time>2000-01-01T01:38:53.000Z</time>
      </trkpt>
      <trkpt lat="46.51274" lon="6.04785">
        <ele>1194</ele>
        <time>2000-01-01T01:38:43.000Z</time>
      </trkpt>
      <trkpt lat="46.51268" lon="6.04744">
        <ele>1183</ele>
        <time>2000-01-01T01:38:33.000Z</time>
      </trkpt>
      <trkpt lat="46.51263" lon="6.04709">
        <ele>1179</ele>
        <time>2000-01-01T01:38:23.000Z</time>
      </trkpt>
      <trkpt lat="46.51279" lon="6.04672">
        <ele>1175</ele>
        <time>2000-01-01T01:38:13.000Z</time>
      </trkpt>
      <trkpt lat="46.51322" lon="6.04663">
        <ele>1182</ele>
        <time>2000-01-01T01:38:03.000Z</time>
      </trkpt>
      <trkpt lat="46.51345" lon="6.04641">
        <ele>1190</ele>
        <time>2000-01-01T01:37:53.000Z</time>
      </trkpt>
      <trkpt lat="46.51365" lon="6.04616">
        <ele>1187</ele>
        <time>2000-01-01T01:37:43.000Z</time>
      </trkpt>
      <trkpt lat="46.5139" lon="6.04618">
        <ele>1186</ele>
        <time>2000-01-01T01:37:33.000Z</time>
      </trkpt>
      <trkpt lat="46.51416" lon="6.04629">
        <ele>1185</ele>
        <time>2000-01-01T01:37:23.000Z</time>
      </trkpt>
      <trkpt lat="46.5144" lon="6.04639">
        <ele>1185</ele>
        <time>2000-01-01T01:37:13.000Z</time>
      </trkpt>
      <trkpt lat="46.51479" lon="6.0465">
        <ele>1185</ele>
        <time>2000-01-01T01:37:03.000Z</time>
      </trkpt>
      <trkpt lat="46.5151" lon="6.04636">
        <ele>1184</ele>
        <time>2000-01-01T01:36:53.000Z</time>
      </trkpt>
      <trkpt lat="46.51534" lon="6.04626">
        <ele>1184</ele>
        <time>2000-01-01T01:36:43.000Z</time>
      </trkpt>
      <trkpt lat="46.51573" lon="6.04614">
        <ele>1185</ele>
        <time>2000-01-01T01:36:33.000Z</time>
      </trkpt>
      <trkpt lat="46.516" lon="6.04605">
        <ele>1185</ele>
        <time>2000-01-01T01:36:23.000Z</time>
      </trkpt>
      <trkpt lat="46.51626" lon="6.04583">
        <ele>1182</ele>
        <time>2000-01-01T01:36:13.000Z</time>
      </trkpt>
      <trkpt lat="46.51636" lon="6.04554">
        <ele>1180</ele>
        <time>2000-01-01T01:36:03.000Z</time>
      </trkpt>
      <trkpt lat="46.51647" lon="6.04506">
        <ele>1179</ele>
        <time>2000-01-01T01:35:53.000Z</time>
      </trkpt>
      <trkpt lat="46.51666" lon="6.04481">
        <ele>1178</ele>
        <time>2000-01-01T01:35:43.000Z</time>
      </trkpt>
      <trkpt lat="46.51711" lon="6.04494">
        <ele>1182</ele>
        <time>2000-01-01T01:35:33.000Z</time>
      </trkpt>
      <trkpt lat="46.51742" lon="6.04511">
        <ele>1182</ele>
        <time>2000-01-01T01:35:23.000Z</time>
      </trkpt>
      <trkpt lat="46.51761" lon="6.04528">
        <ele>1186</ele>
        <time>2000-01-01T01:35:13.000Z</time>
      </trkpt>
      <trkpt lat="46.51789" lon="6.04551">
        <ele>1204</ele>
        <time>2000-01-01T01:35:03.000Z</time>
      </trkpt>
      <trkpt lat="46.51811" lon="6.04569">
        <ele>1204</ele>
        <time>2000-01-01T01:34:53.000Z</time>
      </trkpt>
      <trkpt lat="46.51848" lon="6.04604">
        <ele>1204</ele>
        <time>2000-01-01T01:34:43.000Z</time>
      </trkpt>
      <trkpt lat="46.51872" lon="6.04627">
        <ele>1207</ele>
        <time>2000-01-01T01:34:33.000Z</time>
      </trkpt>
      <trkpt lat="46.51894" lon="6.0464">
        <ele>1207</ele>
        <time>2000-01-01T01:34:23.000Z</time>
      </trkpt>
      <trkpt lat="46.51915" lon="6.04654">
        <ele>1209</ele>
        <time>2000-01-01T01:34:13.000Z</time>
      </trkpt>
      <trkpt lat="46.51952" lon="6.04675">
        <ele>1205</ele>
        <time>2000-01-01T01:34:03.000Z</time>
      </trkpt>
      <trkpt lat="46.51974" lon="6.04707">
        <ele>1203</ele>
        <time>2000-01-01T01:33:53.000Z</time>
      </trkpt>
      <trkpt lat="46.52003" lon="6.04746">
        <ele>1201</ele>
        <time>2000-01-01T01:33:43.000Z</time>
      </trkpt>
      <trkpt lat="46.52032" lon="6.04778">
        <ele>1204</ele>
        <time>2000-01-01T01:33:33.000Z</time>
      </trkpt>
      <trkpt lat="46.52067" lon="6.04812">
        <ele>1207</ele>
        <time>2000-01-01T01:33:23.000Z</time>
      </trkpt>
      <trkpt lat="46.52087" lon="6.04829">
        <ele>1207</ele>
        <time>2000-01-01T01:33:13.000Z</time>
      </trkpt>
      <trkpt lat="46.52114" lon="6.04868">
        <ele>1207</ele>
        <time>2000-01-01T01:33:03.000Z</time>
      </trkpt>
      <trkpt lat="46.52145" lon="6.04811">
        <ele>1196</ele>
        <time>2000-01-01T01:32:53.000Z</time>
      </trkpt>
      <trkpt lat="46.52167" lon="6.0477">
        <ele>1188</ele>
        <time>2000-01-01T01:32:43.000Z</time>
      </trkpt>
      <trkpt lat="46.52188" lon="6.04729">
        <ele>1183</ele>
        <time>2000-01-01T01:32:33.000Z</time>
      </trkpt>
      <trkpt lat="46.5221" lon="6.04688">
        <ele>1178</ele>
        <time>2000-01-01T01:32:23.000Z</time>
      </trkpt>
      <trkpt lat="46.52213" lon="6.04632">
        <ele>1179</ele>
        <time>2000-01-01T01:32:13.000Z</time>
      </trkpt>
      <trkpt lat="46.52213" lon="6.04599">
        <ele>1178</ele>
        <time>2000-01-01T01:32:03.000Z</time>
      </trkpt>
      <trkpt lat="46.52218" lon="6.0457">
        <ele>1178</ele>
        <time>2000-01-01T01:31:53.000Z</time>
      </trkpt>
      <trkpt lat="46.52239" lon="6.04552">
        <ele>1176</ele>
        <time>2000-01-01T01:31:43.000Z</time>
      </trkpt>
      <trkpt lat="46.5226" lon="6.04545">
        <ele>1173</ele>
        <time>2000-01-01T01:31:33.000Z</time>
      </trkpt>
      <trkpt lat="46.52274" lon="6.04519">
        <ele>1171</ele>
        <time>2000-01-01T01:31:23.000Z</time>
      </trkpt>
      <trkpt lat="46.52237" lon="6.04486">
        <ele>1167</ele>
        <time>2000-01-01T01:31:13.000Z</time>
      </trkpt>
      <trkpt lat="46.52205" lon="6.04449">
        <ele>1166</ele>
        <time>2000-01-01T01:31:03.000Z</time>
      </trkpt>
      <trkpt lat="46.52175" lon="6.04408">
        <ele>1165</ele>
        <time>2000-01-01T01:30:53.000Z</time>
      </trkpt>
      <trkpt lat="46.52149" lon="6.04373">
        <ele>1165</ele>
        <time>2000-01-01T01:30:43.000Z</time>
      </trkpt>
      <trkpt lat="46.52123" lon="6.04338">
        <ele>1162</ele>
        <time>2000-01-01T01:30:33.000Z</time>
      </trkpt>
      <trkpt lat="46.52097" lon="6.04303">
        <ele>1159</ele>
        <time>2000-01-01T01:30:23.000Z</time>
      </trkpt>
      <trkpt lat="46.52073" lon="6.0426">
        <ele>1158</ele>
        <time>2000-01-01T01:30:13.000Z</time>
      </trkpt>
      <trkpt lat="46.52053" lon="6.04224">
        <ele>1146</ele>
        <time>2000-01-01T01:30:03.000Z</time>
      </trkpt>
      <trkpt lat="46.52034" lon="6.04188">
        <ele>1145</ele>
        <time>2000-01-01T01:29:53.000Z</time>
      </trkpt>
      <trkpt lat="46.52034" lon="6.04146">
        <ele>1141</ele>
        <time>2000-01-01T01:29:43.000Z</time>
      </trkpt>
      <trkpt lat="46.52034" lon="6.04109">
        <ele>1139</ele>
        <time>2000-01-01T01:29:33.000Z</time>
      </trkpt>
      <trkpt lat="46.52008" lon="6.0406">
        <ele>1115.8</ele>
        <time>2000-01-01T01:29:23.000Z</time>
      </trkpt>
      <trkpt lat="46.51991" lon="6.04053">
        <ele>1124</ele>
        <time>2000-01-01T01:29:13.000Z</time>
      </trkpt>
      <trkpt lat="46.5197" lon="6.04019">
        <ele>1109</ele>
        <time>2000-01-01T01:29:03.000Z</time>
      </trkpt>
      <trkpt lat="46.51954" lon="6.03987">
        <ele>1095</ele>
        <time>2000-01-01T01:28:53.000Z</time>
      </trkpt>
      <trkpt lat="46.51933" lon="6.03957">
        <ele>1095</ele>
        <time>2000-01-01T01:28:43.000Z</time>
      </trkpt>
      <trkpt lat="46.51903" lon="6.03923">
        <ele>1061</ele>
        <time>2000-01-01T01:28:33.000Z</time>
      </trkpt>
      <trkpt lat="46.51884" lon="6.03889">
        <ele>1068.9</ele>
        <time>2000-01-01T01:28:23.000Z</time>
      </trkpt>
      <trkpt lat="46.51883" lon="6.0388">
        <ele>1049</ele>
        <time>2000-01-01T01:28:13.000Z</time>
      </trkpt>
      <trkpt lat="46.51903" lon="6.03821">
        <ele>1046</ele>
        <time>2000-01-01T01:28:03.000Z</time>
      </trkpt>
      <trkpt lat="46.51921" lon="6.03786">
        <ele>1046</ele>
        <time>2000-01-01T01:27:53.000Z</time>
      </trkpt>
      <trkpt lat="46.5193" lon="6.03762">
        <ele>1047</ele>
        <time>2000-01-01T01:27:43.000Z</time>
      </trkpt>
      <trkpt lat="46.51926" lon="6.03724">
        <ele>1047</ele>
        <time>2000-01-01T01:27:33.000Z</time>
      </trkpt>
      <trkpt lat="46.51923" lon="6.03689">
        <ele>1052</ele>
        <time>2000-01-01T01:27:23.000Z</time>
      </trkpt>
      <trkpt lat="46.51944" lon="6.03646">
        <ele>1052</ele>
        <time>2000-01-01T01:27:13.000Z</time>
      </trkpt>
      <trkpt lat="46.51959" lon="6.03627">
        <ele>1052</ele>
        <time>2000-01-01T01:27:03.000Z</time>
      </trkpt>
      <trkpt lat="46.51966" lon="6.03578">
        <ele>1053</ele>
        <time>2000-01-01T01:26:53.000Z</time>
      </trkpt>
      <trkpt lat="46.51967" lon="6.03537">
        <ele>1057</ele>
        <time>2000-01-01T01:26:43.000Z</time>
      </trkpt>
      <trkpt lat="46.51969" lon="6.03501">
        <ele>1060</ele>
        <time>2000-01-01T01:26:33.000Z</time>
      </trkpt>
      <trkpt lat="46.51969" lon="6.03456">
        <ele>1063</ele>
        <time>2000-01-01T01:26:23.000Z</time>
      </trkpt>
      <trkpt lat="46.51969" lon="6.03419">
        <ele>1065</ele>
        <time>2000-01-01T01:26:13.000Z</time>
      </trkpt>
      <trkpt lat="46.51972" lon="6.03366">
        <ele>1047.2</ele>
        <time>2000-01-01T01:26:03.000Z</time>
      </trkpt>
      <trkpt lat="46.51972" lon="6.03366">
        <ele>1067</ele>
        <time>2000-01-01T01:25:53.000Z</time>
      </trkpt>
      <trkpt lat="46.51972" lon="6.0333">
        <ele>1057</ele>
        <time>2000-01-01T01:25:43.000Z</time>
      </trkpt>
      <trkpt lat="46.51961" lon="6.03294">
        <ele>1055</ele>
        <time>2000-01-01T01:25:33.000Z</time>
      </trkpt>
      <trkpt lat="46.51936" lon="6.03329">
        <ele>1054</ele>
        <time>2000-01-01T01:25:23.000Z</time>
      </trkpt>
      <trkpt lat="46.51917" lon="6.03357">
        <ele>1054</ele>
        <time>2000-01-01T01:25:13.000Z</time>
      </trkpt>
      <trkpt lat="46.51892" lon="6.0339">
        <ele>1052</ele>
        <time>2000-01-01T01:25:03.000Z</time>
      </trkpt>
      <trkpt lat="46.51878" lon="6.034">
        <ele>1040.6</ele>
        <time>2000-01-01T01:24:53.000Z</time>
      </trkpt>
      <trkpt lat="46.51866" lon="6.03407">
        <ele>1050</ele>
        <time>2000-01-01T01:24:43.000Z</time>
      </trkpt>
      <trkpt lat="46.51834" lon="6.0341">
        <ele>1042</ele>
        <time>2000-01-01T01:24:33.000Z</time>
      </trkpt>
      <trkpt lat="46.51818" lon="6.03372">
        <ele>1029</ele>
        <time>2000-01-01T01:24:23.000Z</time>
      </trkpt>
      <trkpt lat="46.51795" lon="6.03321">
        <ele>1018</ele>
        <time>2000-01-01T01:24:13.000Z</time>
      </trkpt>
      <trkpt lat="46.5176" lon="6.03279">
        <ele>1011</ele>
        <time>2000-01-01T01:24:03.000Z</time>
      </trkpt>
      <trkpt lat="46.5172" lon="6.03244">
        <ele>1007</ele>
        <time>2000-01-01T01:23:53.000Z</time>
      </trkpt>
      <trkpt lat="46.51696" lon="6.03222">
        <ele>1004</ele>
        <time>2000-01-01T01:23:43.000Z</time>
      </trkpt>
      <trkpt lat="46.51662" lon="6.03202">
        <ele>1001</ele>
        <time>2000-01-01T01:23:33.000Z</time>
      </trkpt>
      <trkpt lat="46.51638" lon="6.03187">
        <ele>997</ele>
        <time>2000-01-01T01:23:23.000Z</time>
      </trkpt>
      <trkpt lat="46.51623" lon="6.03173">
        <ele>988.2</ele>
        <time>2000-01-01T01:23:13.000Z</time>
      </trkpt>
      <trkpt lat="46.5161" lon="6.03154">
        <ele>994</ele>
        <time>2000-01-01T01:23:03.000Z</time>
      </trkpt>
      <trkpt lat="46.51601" lon="6.03132">
        <ele>983.5</ele>
        <time>2000-01-01T01:22:53.000Z</time>
      </trkpt>
      <trkpt lat="46.516" lon="6.03106">
        <ele>995</ele>
        <time>2000-01-01T01:22:43.000Z</time>
      </trkpt>
      <trkpt lat="46.51609" lon="6.03091">
        <ele>982.6</ele>
        <time>2000-01-01T01:22:33.000Z</time>
      </trkpt>
      <trkpt lat="46.51615" lon="6.03083">
        <ele>994</ele>
        <time>2000-01-01T01:22:23.000Z</time>
      </trkpt>
      <trkpt lat="46.51644" lon="6.03084">
        <ele>983</ele>
        <time>2000-01-01T01:22:13.000Z</time>
      </trkpt>
      <trkpt lat="46.51685" lon="6.03088">
        <ele>971</ele>
        <time>2000-01-01T01:22:03.000Z</time>
      </trkpt>
      <trkpt lat="46.5173" lon="6.03092">
        <ele>957</ele>
        <time>2000-01-01T01:21:53.000Z</time>
      </trkpt>
      <trkpt lat="46.51772" lon="6.03087">
        <ele>948</ele>
        <time>2000-01-01T01:21:43.000Z</time>
      </trkpt>
      <trkpt lat="46.518" lon="6.03087">
        <ele>937</ele>
        <time>2000-01-01T01:21:33.000Z</time>
      </trkpt>
      <trkpt lat="46.51825" lon="6.03087">
        <ele>935</ele>
        <time>2000-01-01T01:21:23.000Z</time>
      </trkpt>
      <trkpt lat="46.51869" lon="6.031">
        <ele>927.9</ele>
        <time>2000-01-01T01:21:13.000Z</time>
      </trkpt>
      <trkpt lat="46.51886" lon="6.03097">
        <ele>921</ele>
        <time>2000-01-01T01:21:03.000Z</time>
      </trkpt>
      <trkpt lat="46.51918" lon="6.03093">
        <ele>918</ele>
        <time>2000-01-01T01:20:53.000Z</time>
      </trkpt>
      <trkpt lat="46.51944" lon="6.03091">
        <ele>902</ele>
        <time>2000-01-01T01:20:43.000Z</time>
      </trkpt>
      <trkpt lat="46.51988" lon="6.03086">
        <ele>902</ele>
        <time>2000-01-01T01:20:33.000Z</time>
      </trkpt>
      <trkpt lat="46.52016" lon="6.03083">
        <ele>892</ele>
        <time>2000-01-01T01:20:23.000Z</time>
      </trkpt>
      <trkpt lat="46.52064" lon="6.03084">
        <ele>883.4</ele>
        <time>2000-01-01T01:20:13.000Z</time>
      </trkpt>
      <trkpt lat="46.52079" lon="6.03068">
        <ele>876</ele>
        <time>2000-01-01T01:20:03.000Z</time>
      </trkpt>
      <trkpt lat="46.52087" lon="6.03043">
        <ele>867</ele>
        <time>2000-01-01T01:19:53.000Z</time>
      </trkpt>
      <trkpt lat="46.52079" lon="6.03031">
        <ele>865</ele>
        <time>2000-01-01T01:19:43.000Z</time>
      </trkpt>
      <trkpt lat="46.52066" lon="6.03017">
        <ele>859.5</ele>
        <time>2000-01-01T01:19:33.000Z</time>
      </trkpt>
      <trkpt lat="46.52052" lon="6.03006">
        <ele>855</ele>
        <time>2000-01-01T01:19:23.000Z</time>
      </trkpt>
      <trkpt lat="46.52023" lon="6.03003">
        <ele>858.2</ele>
        <time>2000-01-01T01:19:13.000Z</time>
      </trkpt>
      <trkpt lat="46.52009" lon="6.02995">
        <ele>852</ele>
        <time>2000-01-01T01:19:03.000Z</time>
      </trkpt>
      <trkpt lat="46.5198" lon="6.02959">
        <ele>849</ele>
        <time>2000-01-01T01:18:53.000Z</time>
      </trkpt>
      <trkpt lat="46.51946" lon="6.02937">
        <ele>840</ele>
        <time>2000-01-01T01:18:43.000Z</time>
      </trkpt>
      <trkpt lat="46.51912" lon="6.02909">
        <ele>826.4</ele>
        <time>2000-01-01T01:18:33.000Z</time>
      </trkpt>
      <trkpt lat="46.519" lon="6.02895">
        <ele>835</ele>
        <time>2000-01-01T01:18:23.000Z</time>
      </trkpt>
      <trkpt lat="46.51902" lon="6.02867">
        <ele>815</ele>
        <time>2000-01-01T01:18:13.000Z</time>
      </trkpt>
      <trkpt lat="46.51919" lon="6.02843">
        <ele>802</ele>
        <time>2000-01-01T01:18:03.000Z</time>
      </trkpt>
      <trkpt lat="46.51934" lon="6.02822">
        <ele>802</ele>
        <time>2000-01-01T01:17:53.000Z</time>
      </trkpt>
      <trkpt lat="46.51951" lon="6.02797">
        <ele>788</ele>
        <time>2000-01-01T01:17:43.000Z</time>
      </trkpt>
      <trkpt lat="46.5196" lon="6.02766">
        <ele>788</ele>
        <time>2000-01-01T01:17:33.000Z</time>
      </trkpt>
      <trkpt lat="46.51971" lon="6.02763">
        <ele>783.3</ele>
        <time>2000-01-01T01:17:23.000Z</time>
      </trkpt>
      <trkpt lat="46.51977" lon="6.02758">
        <ele>783.1</ele>
        <time>2000-01-01T01:17:13.000Z</time>
      </trkpt>
      <trkpt lat="46.51977" lon="6.02743">
        <ele>786</ele>
        <time>2000-01-01T01:17:03.000Z</time>
      </trkpt>
      <trkpt lat="46.51969" lon="6.02725">
        <ele>777.2</ele>
        <time>2000-01-01T01:16:53.000Z</time>
      </trkpt>
      <trkpt lat="46.51957" lon="6.02714">
        <ele>771</ele>
        <time>2000-01-01T01:16:43.000Z</time>
      </trkpt>
      <trkpt lat="46.51938" lon="6.02711">
        <ele>767.9</ele>
        <time>2000-01-01T01:16:33.000Z</time>
      </trkpt>
      <trkpt lat="46.51932" lon="6.02716">
        <ele>767</ele>
        <time>2000-01-01T01:16:23.000Z</time>
      </trkpt>
      <trkpt lat="46.51915" lon="6.02681">
        <ele>750</ele>
        <time>2000-01-01T01:16:13.000Z</time>
      </trkpt>
      <trkpt lat="46.51903" lon="6.02657">
        <ele>733</ele>
        <time>2000-01-01T01:16:03.000Z</time>
      </trkpt>
      <trkpt lat="46.51872" lon="6.02625">
        <ele>721</ele>
        <time>2000-01-01T01:15:53.000Z</time>
      </trkpt>
      <trkpt lat="46.51855" lon="6.02623">
        <ele>734.7</ele>
        <time>2000-01-01T01:15:43.000Z</time>
      </trkpt>
      <trkpt lat="46.51841" lon="6.02609">
        <ele>715</ele>
        <time>2000-01-01T01:15:33.000Z</time>
      </trkpt>
      <trkpt lat="46.51809" lon="6.02558">
        <ele>721.9</ele>
        <time>2000-01-01T01:15:23.000Z</time>
      </trkpt>
      <trkpt lat="46.51809" lon="6.02548">
        <ele>710</ele>
        <time>2000-01-01T01:15:13.000Z</time>
      </trkpt>
      <trkpt lat="46.51816" lon="6.0251">
        <ele>710</ele>
        <time>2000-01-01T01:15:03.000Z</time>
      </trkpt>
      <trkpt lat="46.5182" lon="6.02466">
        <ele>714.2</ele>
        <time>2000-01-01T01:14:53.000Z</time>
      </trkpt>
      <trkpt lat="46.51814" lon="6.02445">
        <ele>710</ele>
        <time>2000-01-01T01:14:43.000Z</time>
      </trkpt>
      <trkpt lat="46.51824" lon="6.02407">
        <ele>713</ele>
        <time>2000-01-01T01:14:33.000Z</time>
      </trkpt>
      <trkpt lat="46.51808" lon="6.02411">
        <ele>712.1</ele>
        <time>2000-01-01T01:14:23.000Z</time>
      </trkpt>
      <trkpt lat="46.51808" lon="6.02411">
        <ele>712.1</ele>
        <time>2000-01-01T01:14:13.000Z</time>
      </trkpt>
      <trkpt lat="46.51806" lon="6.02406">
        <ele>712.7</ele>
        <time>2000-01-01T01:14:03.000Z</time>
      </trkpt>
      <trkpt lat="46.51803" lon="6.02392">
        <ele>715</ele>
        <time>2000-01-01T01:13:53.000Z</time>
      </trkpt>
      <trkpt lat="46.51797" lon="6.02388">
        <ele>714.9</ele>
        <time>2000-01-01T01:13:43.000Z</time>
      </trkpt>
      <trkpt lat="46.51779" lon="6.02387">
        <ele>724</ele>
        <time>2000-01-01T01:13:33.000Z</time>
      </trkpt>
      <trkpt lat="46.51754" lon="6.02387">
        <ele>717.6</ele>
        <time>2000-01-01T01:13:23.000Z</time>
      </trkpt>
      <trkpt lat="46.51748" lon="6.02383">
        <ele>728</ele>
        <time>2000-01-01T01:13:13.000Z</time>
      </trkpt>
      <trkpt lat="46.51753" lon="6.02355">
        <ele>730</ele>
        <time>2000-01-01T01:13:03.000Z</time>
      </trkpt>
      <trkpt lat="46.51752" lon="6.02334">
        <ele>722.8</ele>
        <time>2000-01-01T01:12:53.000Z</time>
      </trkpt>
      <trkpt lat="46.51752" lon="6.02319">
        <ele>733</ele>
        <time>2000-01-01T01:12:43.000Z</time>
      </trkpt>
      <trkpt lat="46.51761" lon="6.02318">
        <ele>724.6</ele>
        <time>2000-01-01T01:12:33.000Z</time>
      </trkpt>
      <trkpt lat="46.51771" lon="6.02337">
        <ele>733</ele>
        <time>2000-01-01T01:12:23.000Z</time>
      </trkpt>
      <trkpt lat="46.5179" lon="6.02326">
        <ele>733</ele>
        <time>2000-01-01T01:12:13.000Z</time>
      </trkpt>
      <trkpt lat="46.51796" lon="6.02314">
        <ele>723.2</ele>
        <time>2000-01-01T01:12:03.000Z</time>
      </trkpt>
      <trkpt lat="46.51788" lon="6.02301">
        <ele>736</ele>
        <time>2000-01-01T01:11:53.000Z</time>
      </trkpt>
      <trkpt lat="46.5181" lon="6.02284">
        <ele>726.9</ele>
        <time>2000-01-01T01:11:43.000Z</time>
      </trkpt>
      <trkpt lat="46.51817" lon="6.02267">
        <ele>739</ele>
        <time>2000-01-01T01:11:33.000Z</time>
      </trkpt>
      <trkpt lat="46.51786" lon="6.0227">
        <ele>730.3</ele>
        <time>2000-01-01T01:11:23.000Z</time>
      </trkpt>
      <trkpt lat="46.51773" lon="6.02264">
        <ele>741</ele>
        <time>2000-01-01T01:11:13.000Z</time>
      </trkpt>
      <trkpt lat="46.51764" lon="6.02218">
        <ele>743</ele>
        <time>2000-01-01T01:11:03.000Z</time>
      </trkpt>
      <trkpt lat="46.51716" lon="6.02241">
        <ele>744</ele>
        <time>2000-01-01T01:10:53.000Z</time>
      </trkpt>
      <trkpt lat="46.51688" lon="6.02254">
        <ele>746</ele>
        <time>2000-01-01T01:10:43.000Z</time>
      </trkpt>
      <trkpt lat="46.51688" lon="6.02254">
        <ele>746</ele>
        <time>2000-01-01T01:10:43.000Z</time>
      </trkpt>
    </trkseg>
  </trk>
</gpx>